Time;durP1;ratioP1;P1;durP2;ratioP2;P2;SDS_P1;SDS_P2;PMS_P1;PMS_P2;Temp;Humidity;BMP_temperature;BMP_pressure;BME280_temperature;BME280_humidity;BME280_pressure;Samples;Min_cycle;Max_cycle;Signal;HPM_P1;HPM_P2
2020/12/02 00:00:41;;;;;;;25.15;9.93;;;;;;;0.27;89.77;100482.03;4277803;27;20050;-40
2020/12/02 00:02:50;;;;;;;16.73;7.53;;;;;;;0.27;89.73;100479.50;4263964;27;20058;-40
2020/12/02 00:04:52;;;;;;;21.13;8.07;;;;;;;0.27;89.88;100482.03;4263162;27;20047;-53
2020/12/02 00:06:54;;;;;;;20.40;7.80;;;;;;;0.27;89.72;100479.50;4267645;27;20046;-40
2020/12/02 00:08:59;;;;;;;20.33;8.07;;;;;;;0.26;89.88;100476.06;4273926;27;20043;-55
2020/12/02 00:11:03;;;;;;;16.90;7.35;;;;;;;0.27;89.95;100489.69;4280416;27;20046;-56
2020/12/02 00:13:06;;;;;;;17.95;7.93;;;;;;;0.27;89.81;100482.91;4261425;27;20051;-42
2020/12/02 00:15:09;;;;;;;16.65;7.55;;;;;;;0.27;89.91;100482.91;4261359;27;20050;-40
2020/12/02 00:17:16;;;;;;;18.75;7.78;;;;;;;0.28;89.86;100478.69;4265139;27;20475;-41
2020/12/02 00:19:18;;;;;;;18.00;7.47;;;;;;;0.27;89.97;100482.91;4271770;27;20046;-40
2020/12/02 00:21:21;;;;;;;14.95;7.03;;;;;;;0.28;89.99;100481.25;4246166;28;20062;-41
2020/12/02 00:23:22;;;;;;;17.88;8.00;;;;;;;0.28;90.15;100483.78;4260641;27;20046;-56
2020/12/02 00:25:24;;;;;;;18.38;7.88;;;;;;;0.28;90.22;100486.34;4261234;27;20058;-40
2020/12/02 00:27:28;;;;;;;16.73;7.13;;;;;;;0.28;90.23;100481.25;4264067;27;20047;-55
2020/12/02 00:29:29;;;;;;;18.25;7.07;;;;;;;0.29;90.26;100480.47;4278241;27;20042;-53
2020/12/02 00:31:31;;;;;;;20.90;9.50;;;;;;;0.31;90.06;100489.09;4263801;27;20043;-56
2020/12/02 00:33:32;;;;;;;19.70;8.63;;;;;;;0.32;90.41;100485.78;4262460;27;20050;-56
2020/12/02 00:35:34;;;;;;;19.38;7.70;;;;;;;0.32;90.07;100485.78;4264817;27;20046;-54
2020/12/02 00:37:36;;;;;;;20.77;9.13;;;;;;;0.34;90.34;100491.88;4275095;27;20054;-41
2020/12/02 00:39:37;;;;;;;22.65;8.98;;;;;;;0.34;90.47;100492.75;4279639;27;20042;-56
2020/12/02 00:41:39;;;;;;;21.83;9.65;;;;;;;0.36;90.44;100485.19;4273484;27;20410;-55
2020/12/02 00:43:40;;;;;;;24.20;10.65;;;;;;;0.37;90.38;100485.31;4264946;27;20050;-41
2020/12/02 00:45:42;;;;;;;26.52;10.30;;;;;;;0.37;90.18;100490.41;4254892;27;20054;-41
2020/12/02 00:47:49;;;;;;;16.00;7.20;;;;;;;0.37;90.26;100484.44;4262132;27;20047;-41
2020/12/02 00:49:52;;;;;;;16.13;7.68;;;;;;;0.36;90.29;100488.63;4260297;27;20077;-41
2020/12/02 00:51:55;;;;;;;17.58;8.23;;;;;;;0.34;90.07;100487.66;4266498;27;20074;-41
2020/12/02 00:53:57;;;;;;;20.77;9.18;;;;;;;0.33;89.97;100483.34;4271465;27;20100;-56
2020/12/02 00:55:59;;;;;;;24.90;11.23;;;;;;;0.32;89.93;100490.91;4275718;27;20068;-55
2020/12/02 00:58:02;;;;;;;23.63;9.75;;;;;;;0.32;89.89;100485.78;4261978;27;20043;-55
2020/12/02 01:00:08;;;;;;;22.15;9.95;;;;;;;0.31;90.01;100489.09;4272666;27;20050;-56
2020/12/02 01:02:15;;;;;;;24.30;10.45;;;;;;;0.32;89.83;100483.25;4266677;27;20051;-41
2020/12/02 01:04:19;;;;;;;23.98;11.30;;;;;;;0.32;89.92;100481.56;4262867;27;20501;-41
2020/12/02 01:06:21;;;;;;;29.92;12.40;;;;;;;0.31;90.03;100477.25;4275728;27;20195;-40
2020/12/02 01:08:26;;;;;;;24.67;11.15;;;;;;;0.32;90.09;100478.13;4277904;27;20517;-41
2020/12/02 01:10:28;;;;;;;22.02;10.45;;;;;;;0.30;90.06;100472.94;4264595;27;20495;-41
2020/12/02 01:12:30;;;;;;;23.88;10.50;;;;;;;0.30;90.09;100477.16;4262356;27;20058;-40
2020/12/02 01:14:32;;;;;;;19.92;8.48;;;;;;;0.30;90.07;100479.69;4261651;27;20084;-55
2020/12/02 01:16:35;;;;;;;20.15;8.40;;;;;;;0.32;90.10;100478.13;4279933;27;20103;-57
2020/12/02 01:18:37;;;;;;;19.63;8.35;;;;;;;0.31;90.06;100473.81;4249124;27;20047;-57
2020/12/02 01:20:39;;;;;;;18.30;9.05;;;;;;;0.30;89.88;100477.16;4256076;27;20043;-56
2020/12/02 01:22:45;;;;;;;19.67;8.50;;;;;;;0.28;89.95;100474.50;4259872;27;20047;-55
2020/12/02 01:24:55;;;;;;;18.90;8.38;;;;;;;0.26;90.03;100467.50;4260159;27;20050;-54
2020/12/02 01:27:05;;;;;;;24.02;10.50;;;;;;;0.26;90.19;100473.50;4261714;27;20096;-56
2020/12/02 01:29:13;;;;;;;19.33;8.18;;;;;;;0.25;89.79;100469.19;4261273;27;20065;-53
2020/12/02 01:31:14;;;;;;;22.77;9.98;;;;;;;0.24;89.94;100472.50;4269463;27;20046;-41
2020/12/02 01:33:17;;;;;;;21.58;9.30;;;;;;;0.23;90.14;100468.19;4271524;27;20046;-41
2020/12/02 01:35:22;;;;;;;22.75;10.95;;;;;;;0.23;89.74;100463.97;4263063;27;20043;-53
2020/12/02 01:37:33;;;;;;;22.58;10.45;;;;;;;0.25;89.95;100466.63;4248234;28;20047;-53
2020/12/02 01:39:41;;;;;;;19.30;9.80;;;;;;;0.25;89.97;100453.00;4275519;27;20491;-54
2020/12/02 01:41:43;;;;;;;21.88;10.27;;;;;;;0.25;89.98;100458.97;4268970;27;20047;-56
2020/12/02 01:43:46;;;;;;;23.20;10.05;;;;;;;0.25;89.75;100460.66;4262935;27;20079;-41
2020/12/02 01:45:49;;;;;;;24.05;10.73;;;;;;;0.26;89.80;100457.28;4263497;27;20055;-41
2020/12/02 01:48:15;;;;;;;23.65;10.77;;;;;;;0.27;89.87;100456.53;4265970;27;20095;-41
2020/12/02 01:50:26;;;;;;;24.42;10.55;;;;;;;0.27;89.89;100457.41;4279650;27;20053;-55
2020/12/02 01:52:48;;;;;;;26.02;10.70;;;;;;;0.27;89.95;100456.53;4266962;27;20514;-55
2020/12/02 01:54:58;;;;;;;23.10;9.68;;;;;;;0.26;90.09;100454.75;4272068;27;20049;-41
2020/12/02 01:57:05;;;;;;;21.77;9.18;;;;;;;0.25;89.84;100451.31;4269393;27;20082;-42
2020/12/02 01:59:18;;;;;;;18.63;9.23;;;;;;;0.23;89.91;100455.44;4251335;27;20050;-41
2020/12/02 02:01:23;;;;;;;17.27;8.43;;;;;;;0.21;89.83;100444.25;4247943;27;20099;-41
2020/12/02 02:03:25;;;;;;;;;;;;;;;0.20;89.88;100448.44;4276803;27;20422;-42
2020/12/02 02:05:32;;;;;;;16.90;7.65;;;;;;;0.19;89.79;100449.25;4268613;27;19948;-41
2020/12/02 02:07:35;;;;;;;17.45;7.55;;;;;;;0.17;89.77;100444.78;4264391;27;20049;-53
2020/12/02 02:09:37;;;;;;;16.58;7.45;;;;;;;0.17;89.75;100452.44;4264347;27;20140;-41
2020/12/02 02:11:46;;;;;;;13.88;6.60;;;;;;;0.15;89.64;100448.91;4265302;27;20099;-51
2020/12/02 02:14:02;;;;;;;19.25;9.02;;;;;;;0.14;89.98;100447.16;4276972;27;20054;-52
2020/12/02 02:16:09;;;;;;;21.15;8.75;;;;;;;0.14;89.95;100447.16;4255612;27;20050;-53
2020/12/02 02:18:14;;;;;;;13.45;6.75;;;;;;;0.14;90.01;100448.03;4256411;27;20043;-53
2020/12/02 02:20:17;;;;;;;20.17;8.68;;;;;;;0.13;90.00;100451.34;4262328;27;20053;-54
2020/12/02 02:22:22;;;;;;;17.67;8.10;;;;;;;0.13;89.88;100453.03;4281339;27;20054;-53
2020/12/02 02:24:25;;;;;;;24.52;9.48;;;;;;;0.14;89.81;100453.16;4276016;27;20509;-41
2020/12/02 02:26:39;;;;;;;22.13;9.55;;;;;;;0.13;89.87;100448.81;4269015;27;20058;-41
2020/12/02 02:28:44;;;;;;;22.92;9.52;;;;;;;0.12;90.07;100448.69;4267284;27;20486;-41
2020/12/02 02:30:45;;;;;;;;;;;;;;;0.13;90.01;100450.47;4276353;27;20074;-41
2020/12/02 02:32:47;;;;;;;23.40;9.70;;;;;;;0.12;90.13;100447.06;4280940;27;19923;-54
2020/12/02 02:34:53;;;;;;;19.27;8.70;;;;;;;0.13;90.00;100450.47;4275262;27;20046;-55
2020/12/02 02:36:55;;;;;;;18.77;8.68;;;;;;;0.14;90.15;100444.63;4265108;27;20104;-52
2020/12/02 02:38:57;;;;;;;17.30;8.52;;;;;;;0.13;90.09;100443.72;4251336;27;20070;-41
2020/12/02 02:40:59;;;;;;;24.23;9.30;;;;;;;0.15;90.12;100448.91;4264451;27;20074;-54
2020/12/02 02:43:05;;;;;;;18.67;8.20;;;;;;;0.15;90.24;100448.91;4263115;27;20047;-41
2020/12/02 02:45:09;;;;;;;21.58;8.95;;;;;;;0.13;90.05;100453.03;4261364;27;20043;-41
2020/12/02 02:47:13;;;;;;;22.85;8.65;;;;;;;0.12;89.97;100447.06;4266282;27;20054;-41
2020/12/02 02:49:15;;;;;;;20.63;8.40;;;;;;;0.11;89.92;100455.47;4275830;27;20517;-41
2020/12/02 02:51:17;;;;;;;18.48;8.27;;;;;;;0.11;90.03;100446.94;4250177;27;20047;-52
2020/12/02 02:53:21;;;;;;;22.40;8.45;;;;;;;0.11;89.81;100449.50;4260922;27;20057;-41
2020/12/02 02:55:26;;;;;;;23.80;9.35;;;;;;;0.09;89.84;100449.41;4268306;27;20049;-42
2020/12/02 02:57:28;;;;;;;21.30;8.60;;;;;;;0.08;90.12;100452.72;4275007;27;20069;-55
2020/12/02 02:59:30;;;;;;;20.73;8.73;;;;;;;0.07;89.81;100453.50;4281941;27;20054;-51
2020/12/02 03:01:33;;;;;;;21.08;9.13;;;;;;;0.06;89.82;100450.84;4264280;27;20422;-53
2020/12/02 03:03:35;;;;;;;20.85;9.30;;;;;;;0.06;89.99;100463.59;4263822;27;20100;-52
2020/12/02 03:05:37;;;;;;;20.88;9.02;;;;;;;0.06;90.03;100453.41;4263598;27;20119;-51
2020/12/02 03:07:40;;;;;;;19.05;8.32;;;;;;;0.04;90.11;100451.63;4263049;27;20534;-51
2020/12/02 03:09:42;;;;;;;21.75;8.95;;;;;;;0.06;90.13;100466.16;4279361;27;20053;-41
2020/12/02 03:11:44;;;;;;;18.65;9.07;;;;;;;0.05;90.00;100460.19;4272728;27;20487;-51
2020/12/02 03:13:49;;;;;;;17.95;7.47;;;;;;;0.06;90.07;100464.47;4271673;27;20070;-42
2020/12/02 03:15:51;;;;;;;19.80;8.15;;;;;;;0.03;90.13;100457.53;4261981;27;20047;-41
2020/12/02 03:17:53;;;;;;;15.57;7.07;;;;;;;0.03;89.87;100457.53;4247624;28;20415;-54
2020/12/02 03:20:00;;;;;;;18.73;7.70;;;;;;;0.02;89.74;100452.31;4272525;27;20568;-52
2020/12/02 03:22:09;;;;;;;18.58;8.07;;;;;;;0.00;89.77;100447.09;4268950;27;20049;-51
2020/12/02 03:24:10;;;;;;;21.10;8.23;;;;;;;0.00;89.83;100452.19;4264075;27;20042;-55
2020/12/02 03:26:12;;;;;;;20.70;7.03;;;;;;;0.00;89.82;100457.31;4269629;27;20054;-54
2020/12/02 03:28:15;;;;;;;19.02;7.68;;;;;;;-0.00;89.96;100458.97;4279355;27;20494;-54
2020/12/02 03:30:18;;;;;;;20.10;8.50;;;;;;;-0.02;89.63;100455.44;4274239;27;20125;-52
2020/12/02 03:32:21;;;;;;;18.92;7.60;;;;;;;-0.04;89.73;100462.06;4270947;27;20050;-51
2020/12/02 03:34:23;;;;;;;20.42;8.43;;;;;;;-0.05;89.57;100455.22;4260752;27;20047;-41
2020/12/02 03:36:24;;;;;;;17.33;7.75;;;;;;;-0.07;89.72;100454.25;4281590;27;20130;-41
2020/12/02 03:38:26;;;;;;;19.73;9.00;;;;;;;-0.09;89.50;100454.13;4273060;27;20495;-52
2020/12/02 03:40:27;;;;;;;21.15;8.43;;;;;;;-0.10;89.72;100451.47;4272878;27;20046;-41
2020/12/02 03:42:29;;;;;;;22.42;9.45;;;;;;;-0.10;89.83;100448.91;4273995;27;20506;-41
2020/12/02 03:44:31;;;;;;;21.80;8.80;;;;;;;-0.11;89.88;100450.59;4281584;27;20099;-41
2020/12/02 03:46:32;;;;;;;18.50;7.70;;;;;;;-0.10;89.95;100454.03;4273995;27;20050;-41
2020/12/02 03:48:34;;;;;;;20.17;8.50;;;;;;;-0.10;90.10;100454.03;4268927;27;20049;-41
2020/12/02 03:50:36;;;;;;;20.75;8.40;;;;;;;-0.09;89.98;100458.34;4262271;27;20051;-54
2020/12/02 03:52:39;;;;;;;18.58;8.45;;;;;;;-0.10;89.85;100454.91;4278835;27;20056;-54
2020/12/02 03:54:40;;;;;;;22.10;8.60;;;;;;;-0.09;90.01;100453.25;4248620;27;20104;-53
2020/12/02 03:56:42;;;;;;;22.60;9.90;;;;;;;-0.11;90.02;100453.16;4250478;27;20392;-41
2020/12/02 03:58:43;;;;;;;23.83;9.27;;;;;;;-0.12;89.96;100453.91;4253754;27;20483;-41
2020/12/02 04:00:45;;;;;;;22.05;8.90;;;;;;;-0.14;89.81;100455.47;4278548;27;20049;-55
2020/12/02 04:02:46;;;;;;;17.75;8.68;;;;;;;-0.17;89.72;100456.13;4275272;27;20053;-56
2020/12/02 04:04:48;;;;;;;19.30;8.90;;;;;;;-0.19;89.77;100459.38;4272580;27;20057;-41
2020/12/02 04:06:50;;;;;;;18.48;8.35;;;;;;;-0.21;89.67;100455.84;4272878;27;20046;-41
2020/12/02 04:08:52;;;;;;;19.60;9.23;;;;;;;-0.22;89.86;100460.06;4260693;27;20043;-41
2020/12/02 04:10:53;;;;;;;19.75;9.27;;;;;;;-0.24;89.61;100459.03;4277075;27;20471;-41
2020/12/02 04:12:55;;;;;;;22.45;9.88;;;;;;;-0.26;89.89;100455.50;4265807;27;20085;-41
2020/12/02 04:14:56;;;;;;;25.35;9.85;;;;;;;-0.27;89.83;100463.94;4265784;27;20056;-41
2020/12/02 04:16:57;;;;;;;23.73;10.82;;;;;;;-0.29;89.78;100451.84;4275133;27;20051;-41
2020/12/02 04:19:00;;;;;;;24.65;10.20;;;;;;;-0.31;89.70;100461.94;4273100;27;20046;-56
2020/12/02 04:21:02;;;;;;;26.52;11.38;;;;;;;-0.33;89.70;100468.59;4270386;27;20570;-55
2020/12/02 04:23:03;;;;;;;23.98;11.00;;;;;;;-0.33;89.72;100466.06;4272448;27;20050;-53
2020/12/02 04:25:06;;;;;;;25.40;11.05;;;;;;;-0.35;89.78;100465.94;4275385;27;20131;-55
2020/12/02 04:27:07;;;;;;;21.88;10.77;;;;;;;-0.37;89.66;100464.09;4246352;28;20047;-41
2020/12/02 04:29:09;;;;;;;29.00;11.32;;;;;;;-0.37;89.91;100462.41;4260503;27;20047;-41
2020/12/02 04:31:10;;;;;;;26.90;11.57;;;;;;;-0.36;89.88;100463.28;4268888;27;20077;-40
2020/12/02 04:33:12;;;;;;;26.33;10.57;;;;;;;-0.37;89.85;100459.88;4276112;27;20611;-54
2020/12/02 04:35:15;;;;;;;23.45;10.27;;;;;;;-0.35;90.03;100459.97;4274614;27;20081;-41
2020/12/02 04:37:17;;;;;;;28.80;11.70;;;;;;;-0.34;89.90;100464.31;4278247;27;20443;-54
2020/12/02 04:39:19;;;;;;;27.77;10.93;;;;;;;-0.36;89.73;100464.19;4273678;27;20110;-55
2020/12/02 04:41:21;;;;;;;39.88;13.85;;;;;;;-0.37;89.81;100464.97;4271054;27;20042;-54
2020/12/02 04:43:26;;;;;;;29.10;13.25;;;;;;;-0.39;89.57;100456.31;4260527;27;20070;-55
2020/12/02 04:45:29;;;;;;;34.63;13.23;;;;;;;-0.38;89.82;100460.66;4246151;28;20043;-56
2020/12/02 04:47:32;;;;;;;26.10;11.60;;;;;;;-0.38;89.73;100464.84;4270430;27;20084;-56
2020/12/02 04:49:34;;;;;;;30.92;13.77;;;;;;;-0.41;89.59;100457.88;4268440;27;20058;-41
2020/12/02 04:51:36;;;;;;;34.70;13.35;;;;;;;-0.41;89.71;100459.53;4261957;27;20046;-41
2020/12/02 04:53:40;;;;;;;30.50;13.52;;;;;;;-0.45;89.51;100455.88;4261043;27;20065;-56
2020/12/02 04:55:43;;;;;;;30.20;13.30;;;;;;;-0.46;89.57;100463.44;4277223;27;20090;-57
2020/12/02 04:57:44;;;;;;;27.55;11.63;;;;;;;-0.47;89.34;100456.56;4273152;27;20046;-56
2020/12/02 04:59:46;;;;;;;21.02;9.63;;;;;;;-0.49;89.44;100455.56;4273381;27;20418;-41
2020/12/02 05:01:50;;;;;;;33.45;13.75;;;;;;;-0.51;89.36;100460.56;4275450;27;20074;-56
2020/12/02 05:04:01;;;;;;;29.08;13.23;;;;;;;-0.53;89.09;100457.91;4277682;27;20414;-41
2020/12/02 05:06:03;;;;;;;29.77;11.80;;;;;;;-0.54;89.21;100456.13;4264243;27;20049;-56
2020/12/02 05:08:18;;;;;;;27.15;12.23;;;;;;;-0.55;89.11;100456.91;4265085;27;20077;-43
2020/12/02 05:10:20;;;;;;;35.47;13.25;;;;;;;-0.58;88.92;100461.78;4265871;27;20053;-41
2020/12/02 05:12:24;;;;;;;29.48;12.40;;;;;;;-0.60;88.72;100457.38;4272412;27;20095;-41
2020/12/02 05:14:35;;;;;;;22.92;10.60;;;;;;;-0.61;88.88;100461.56;4266360;27;20091;-41
2020/12/02 05:16:37;;;;;;;27.88;12.60;;;;;;;-0.60;89.03;100465.03;4265035;27;20074;-41
2020/12/02 05:18:38;;;;;;;28.23;13.20;;;;;;;-0.60;88.90;100476.09;4263733;27;20047;-41
2020/12/02 05:20:40;;;;;;;31.88;12.85;;;;;;;-0.61;88.66;100469.19;4264739;27;20502;-41
2020/12/02 05:22:43;;;;;;;28.40;12.80;;;;;;;-0.61;88.88;100466.66;4264701;27;20575;-41
2020/12/02 05:24:47;;;;;;;29.60;12.07;;;;;;;-0.60;88.93;100475.22;4268446;27;20047;-57
2020/12/02 05:26:51;;;;;;;33.40;13.23;;;;;;;-0.60;88.85;100473.53;4264103;27;20564;-41
2020/12/02 05:28:52;;;;;;;29.70;12.65;;;;;;;-0.61;88.78;100471.75;4268365;27;20282;-41
2020/12/02 05:31:03;;;;;;;26.70;12.00;;;;;;;-0.60;89.08;100481.19;4274732;27;20074;-56
2020/12/02 05:33:22;;;;;;;26.27;12.85;;;;;;;-0.57;89.26;100478.84;4280963;27;20061;-56
2020/12/02 05:35:25;;;;;;;29.83;13.23;;;;;;;-0.57;89.17;100477.94;4264615;27;20479;-57
2020/12/02 05:37:33;;;;;;;36.17;12.95;;;;;;;-0.56;89.12;100474.63;4264429;27;20050;-41
2020/12/02 05:39:50;;;;;;;30.65;11.77;;;;;;;-0.55;89.51;100479.84;4270054;27;20050;-41
2020/12/02 05:41:55;;;;;;;33.70;13.80;;;;;;;-0.55;89.17;100477.28;4274630;27;20256;-41
2020/12/02 05:43:59;;;;;;;29.20;13.15;;;;;;;-0.56;89.17;100480.63;4277660;27;20042;-41
2020/12/02 05:46:00;;;;;;;26.83;11.82;;;;;;;-0.57;89.06;100481.41;4265565;27;20050;-41
2020/12/02 05:48:07;;;;;;;26.90;12.32;;;;;;;-0.59;88.94;100477.88;4274214;27;20057;-41
2020/12/02 05:50:13;;;;;;;20.80;9.05;;;;;;;-0.60;88.89;100485.41;4275800;27;20475;-41
2020/12/02 05:52:20;;;;;;;28.25;10.05;;;;;;;-0.61;89.11;100489.59;4277381;27;20042;-41
2020/12/02 05:54:24;;;;;;;28.73;10.40;;;;;;;-0.62;89.00;100486.97;4248261;28;20063;-56
2020/12/02 05:56:25;;;;;;;25.83;10.35;;;;;;;-0.62;88.84;100494.59;4275133;27;20521;-56
2020/12/02 05:58:29;;;;;;;21.73;9.25;;;;;;;-0.61;89.14;100489.59;4275479;27;20046;-41
2020/12/02 06:00:32;;;;;;;22.48;10.60;;;;;;;-0.59;89.43;100490.59;4275357;27;20050;-57
2020/12/02 06:02:37;;;;;;;25.98;10.05;;;;;;;-0.58;89.41;100488.94;4248644;28;20432;-56
2020/12/02 06:04:39;;;;;;;24.65;11.75;;;;;;;-0.56;89.66;100490.81;4276459;27;20140;-57
2020/12/02 06:06:40;;;;;;;26.70;11.68;;;;;;;-0.54;89.23;100491.78;4266417;27;20057;-58
2020/12/02 06:08:44;;;;;;;30.27;12.43;;;;;;;-0.54;89.45;100499.44;4263855;27;20135;-57
2020/12/02 06:10:59;;;;;;;45.10;18.90;;;;;;;-0.51;89.34;100501.34;4261650;27;20055;-57
2020/12/02 06:13:00;;;;;;;28.65;13.35;;;;;;;-0.52;89.31;100502.09;4279909;27;20092;-57
2020/12/02 06:15:15;;;;;;;35.80;15.07;;;;;;;-0.34;90.65;100498.31;4265440;27;20054;-58
2020/12/02 06:17:29;;;;;;;31.90;13.23;;;;;;;-0.31;89.76;100496.75;4264987;27;20047;-41
2020/12/02 06:19:48;;;;;;;29.77;14.05;;;;;;;-0.30;89.29;100496.88;4262558;27;20162;-57
2020/12/02 06:21:52;;;;;;;28.67;11.48;;;;;;;-0.34;88.59;100503.41;4264358;27;20107;-57
2020/12/02 06:23:56;;;;;;;24.00;11.18;;;;;;;-0.38;88.58;100492.88;4266801;27;20051;-56
2020/12/02 06:25:58;;;;;;;26.87;13.90;;;;;;;-0.40;88.69;100497.88;4271742;27;20046;-56
2020/12/02 06:27:59;;;;;;;26.98;13.05;;;;;;;-0.40;88.88;100497.88;4262488;27;20057;-56
2020/12/02 06:30:13;;;;;;;32.28;14.50;;;;;;;-0.42;88.70;100499.44;4267302;27;20087;-56
2020/12/02 06:32:17;;;;;;;23.08;10.93;;;;;;;-0.45;88.71;100498.34;4273665;27;20047;-57
2020/12/02 06:34:23;;;;;;;30.33;12.57;;;;;;;-0.49;88.45;100498.91;4280768;27;20050;-57
2020/12/02 06:36:28;;;;;;;28.75;12.13;;;;;;;-0.51;88.67;100508.97;4279072;27;20054;-57
2020/12/02 06:38:30;;;;;;;28.60;12.07;;;;;;;-0.55;88.63;100500.22;4275414;27;20058;-56
2020/12/02 06:40:32;;;;;;;24.80;10.63;;;;;;;-0.56;88.75;100495.03;4273939;27;20087;-56
2020/12/02 06:42:35;;;;;;;29.38;13.00;;;;;;;-0.46;89.76;100494.91;4278110;27;20275;-57
2020/12/02 06:44:41;;;;;;;26.02;11.20;;;;;;;-0.35;89.75;100488.88;4278249;27;20455;-56
2020/12/02 06:47:03;;;;;;;21.23;10.00;;;;;;;-0.32;89.00;100500.97;4262277;27;20038;-57
2020/12/02 06:49:05;;;;;;;24.90;10.68;;;;;;;-0.34;88.27;100500.88;4261369;27;20080;-56
2020/12/02 06:51:09;;;;;;;21.13;10.38;;;;;;;-0.36;88.41;100504.97;4262678;27;20493;-57
2020/12/02 06:53:13;;;;;;;20.98;9.88;;;;;;;-0.38;88.07;100503.06;4267198;27;20038;-55
2020/12/02 06:55:21;;;;;;;24.85;10.48;;;;;;;-0.40;88.08;100504.63;4270250;27;20095;-56
2020/12/02 06:57:25;;;;;;;23.00;9.75;;;;;;;-0.42;88.36;100506.19;4265313;27;20042;-57
2020/12/02 06:59:27;;;;;;;22.42;9.90;;;;;;;-0.43;88.38;100506.97;4261500;27;20047;-56
2020/12/02 07:01:30;;;;;;;16.98;8.25;;;;;;;-0.44;88.35;100506.09;4263427;27;20046;-56
2020/12/02 07:03:39;;;;;;;17.50;8.80;;;;;;;-0.44;88.42;100503.53;4262390;27;20043;-56
2020/12/02 07:05:44;;;;;;;22.63;10.57;;;;;;;-0.45;88.63;100499.22;4263617;27;20042;-56
2020/12/02 07:07:45;;;;;;;19.38;9.88;;;;;;;-0.46;88.36;100500.00;4263755;27;20053;-56
2020/12/02 07:09:48;;;;;;;18.55;8.15;;;;;;;-0.47;88.35;100498.22;4267973;27;20065;-56
2020/12/02 07:11:55;;;;;;;27.45;10.43;;;;;;;-0.47;88.41;100505.00;4268003;27;20134;-55
2020/12/02 07:14:13;;;;;;;18.88;9.23;;;;;;;-0.46;88.53;100509.31;4269399;27;20083;-52
2020/12/02 07:16:22;;;;;;;24.92;10.40;;;;;;;-0.46;88.70;100504.22;4265340;27;20785;-41
2020/12/02 07:18:25;;;;;;;19.88;8.20;;;;;;;-0.47;88.42;100502.44;4262850;27;20452;-41
2020/12/02 07:20:28;;;;;;;17.77;8.30;;;;;;;-0.48;88.13;100498.09;4258016;27;20039;-40
2020/12/02 07:22:34;;;;;;;17.40;7.55;;;;;;;-0.49;88.27;100509.09;4262421;27;20046;-41
2020/12/02 07:24:39;;;;;;;18.10;7.22;;;;;;;-0.50;88.11;100508.22;4261277;27;20704;-41
2020/12/02 07:26:41;;;;;;;11.23;5.80;;;;;;;-0.50;88.16;100507.31;4263797;27;20058;-41
2020/12/02 07:28:42;;;;;;;18.55;9.10;;;;;;;-0.50;88.39;100510.78;4257510;27;20054;-40
2020/12/02 07:30:45;;;;;;;20.42;10.27;;;;;;;-0.48;88.58;100508.31;4251667;27;20061;-41
2020/12/02 07:32:47;;;;;;;22.73;10.15;;;;;;;-0.47;88.45;100505.88;4253076;27;20055;-41
2020/12/02 07:34:48;;;;;;;20.38;9.82;;;;;;;-0.43;88.58;100514.59;4259055;27;20043;-41
2020/12/02 07:36:56;;;;;;;18.50;9.18;;;;;;;-0.41;88.72;100506.31;4271780;27;20054;-41
2020/12/02 07:39:00;;;;;;;23.35;9.88;;;;;;;-0.39;88.78;100507.31;4263344;27;20050;-41
2020/12/02 07:41:10;;;;;;;16.13;7.65;;;;;;;-0.41;88.34;100513.97;4260931;27;20051;-41
2020/12/02 07:43:26;;;;;;;20.23;9.35;;;;;;;-0.42;88.33;100509.63;4258748;27;20414;-41
2020/12/02 07:45:31;;;;;;;17.33;8.63;;;;;;;-0.39;88.60;100511.53;4263149;27;20046;-41
2020/12/02 07:47:32;;;;;;;;;;;;;;;-0.38;88.57;100515.81;4258017;27;20074;-41
2020/12/02 07:49:37;;;;;;;15.68;6.45;;;;;;;-0.39;88.40;100511.53;4260134;27;19995;-41
2020/12/02 07:51:43;;;;;;;18.25;8.13;;;;;;;-0.39;88.19;100524.28;4259910;27;20050;-41
2020/12/02 07:53:54;;;;;;;20.40;8.75;;;;;;;-0.39;88.39;100516.63;4261025;27;20049;-41
2020/12/02 07:55:58;;;;;;;18.63;8.95;;;;;;;-0.37;88.54;100518.50;4263428;27;20049;-41
2020/12/02 07:58:00;;;;;;;19.80;8.68;;;;;;;-0.33;88.43;100522.13;4261992;27;20054;-41
2020/12/02 08:00:20;;;;;;;20.42;8.45;;;;;;;-0.30;88.67;100509.63;4261788;27;20494;-41
2020/12/02 08:02:22;;;;;;;19.13;9.65;;;;;;;-0.28;88.33;100507.19;4255807;27;20050;-41
2020/12/02 08:04:32;;;;;;;22.65;9.55;;;;;;;-0.26;88.54;100511.59;4258616;27;20407;-41
2020/12/02 08:06:42;;;;;;;17.85;8.00;;;;;;;-0.23;88.43;100503.28;4260662;27;20054;-41
2020/12/02 08:08:43;;;;;;;18.45;9.68;;;;;;;-0.20;88.63;100504.38;4261591;27;20057;-40
2020/12/02 08:10:45;;;;;;;22.52;9.85;;;;;;;-0.19;88.44;100501.03;4259261;27;20053;-41
2020/12/02 08:12:47;;;;;;;19.88;9.27;;;;;;;-0.18;88.43;100502.81;4265666;27;20260;-41
2020/12/02 08:14:59;;;;;;;18.70;8.63;;;;;;;-0.17;88.36;100496.06;4263336;27;20529;-41
2020/12/02 08:17:07;;;;;;;22.67;8.80;;;;;;;-0.17;88.24;100504.56;4265737;27;20050;-41
2020/12/02 08:19:11;;;;;;;16.88;8.52;;;;;;;-0.17;88.07;100504.56;4263148;27;20057;-41
2020/12/02 08:21:14;;;;;;;;;;;;;;;-0.17;88.08;100508.81;4259124;27;20050;-41
2020/12/02 08:23:24;;;;;;;17.85;8.20;;;;;;;-0.18;87.76;100513.03;4261975;27;19975;-40
2020/12/02 08:25:30;;;;;;;16.25;7.45;;;;;;;-0.19;87.63;100500.16;4264875;27;20047;-41
2020/12/02 08:27:32;;;;;;;16.98;8.68;;;;;;;-0.21;87.38;100505.16;4266242;27;20053;-41
2020/12/02 08:29:35;;;;;;;17.25;7.90;;;;;;;-0.20;87.60;100495.84;4267442;27;20054;-41
2020/12/02 08:31:37;;;;;;;18.02;8.75;;;;;;;-0.21;87.67;100496.63;4266326;27;20487;-41
2020/12/02 08:33:39;;;;;;;20.58;9.55;;;;;;;-0.23;87.57;100495.63;4258172;27;20050;-41
2020/12/02 08:35:45;;;;;;;18.58;9.23;;;;;;;-0.22;87.66;100500.84;4263628;27;20133;-41
2020/12/02 08:37:53;;;;;;;23.15;8.75;;;;;;;-0.22;87.81;100492.28;4252626;27;20059;-41
2020/12/02 08:39:56;;;;;;;21.67;9.85;;;;;;;-0.22;87.90;100495.75;4256735;27;20449;-41
2020/12/02 08:41:58;;;;;;;18.00;9.07;;;;;;;-0.21;87.92;100494.09;4259217;27;20090;-41
2020/12/02 08:44:09;;;;;;;21.83;9.88;;;;;;;-0.20;87.95;100491.63;4262417;27;20054;-40
2020/12/02 08:46:16;;;;;;;21.90;11.25;;;;;;;-0.19;88.22;100488.28;4266340;27;20050;-41
2020/12/02 08:48:18;;;;;;;20.67;9.80;;;;;;;-0.19;88.22;100485.75;4264699;27;20408;-41
2020/12/02 08:50:26;;;;;;;21.35;11.27;;;;;;;-0.20;87.76;100488.19;4262125;27;20046;-40
2020/12/02 08:52:27;;;;;;;22.20;9.82;;;;;;;-0.19;87.73;100479.78;4259846;27;20046;-41
2020/12/02 08:54:30;;;;;;;21.05;9.43;;;;;;;-0.20;87.75;100483.09;4267022;27;20125;-41
2020/12/02 08:56:34;;;;;;;19.55;8.90;;;;;;;-0.21;87.81;100474.56;4264982;27;20076;-41
2020/12/02 08:58:35;;;;;;;21.70;9.57;;;;;;;-0.20;87.83;100478.91;4259995;27;20407;-41
2020/12/02 09:00:37;;;;;;;20.70;9.60;;;;;;;-0.21;87.56;100483.88;4262378;27;20038;-40
2020/12/02 09:02:39;;;;;;;21.50;9.77;;;;;;;-0.21;87.82;100483.88;4264636;27;20051;-41
2020/12/02 09:04:45;;;;;;;22.38;11.10;;;;;;;-0.20;87.76;100481.44;4265535;27;20520;-41
2020/12/02 09:06:49;;;;;;;24.95;11.35;;;;;;;-0.19;87.88;100478.09;4265815;27;20066;-57
2020/12/02 09:08:52;;;;;;;20.83;9.65;;;;;;;-0.17;87.97;100479.09;4264640;27;20095;-56
2020/12/02 09:10:53;;;;;;;24.48;10.60;;;;;;;-0.16;87.87;100480.88;4263080;27;20108;-57
2020/12/02 09:12:55;;;;;;;23.52;10.82;;;;;;;-0.12;87.79;100486.19;4266834;27;20048;-56
2020/12/02 09:14:56;;;;;;;24.42;10.48;;;;;;;-0.11;87.92;100481.19;4258104;27;20063;-56
2020/12/02 09:16:58;;;;;;;22.02;9.68;;;;;;;-0.09;87.73;100474.53;4271386;27;20414;-41
2020/12/02 09:19:00;;;;;;;22.80;10.90;;;;;;;-0.07;87.65;100467.00;4263606;27;20047;-41
2020/12/02 09:21:01;;;;;;;32.67;12.50;;;;;;;-0.03;87.77;100474.94;4255343;27;20502;-41
2020/12/02 09:23:03;;;;;;;34.08;12.40;;;;;;;-0.00;87.78;100469.19;4256690;27;20051;-41
2020/12/02 09:25:04;;;;;;;25.42;11.85;;;;;;;0.03;87.79;100471.91;4267673;27;20050;-41
2020/12/02 09:27:06;;;;;;;25.00;12.57;;;;;;;0.07;87.75;100470.50;4263936;27;20521;-41
2020/12/02 09:29:15;;;;;;;27.17;10.77;;;;;;;0.10;88.06;100474.13;4267425;27;20046;-41
2020/12/02 09:31:18;;;;;;;24.63;11.25;;;;;;;0.12;87.97;100464.91;4261538;27;20057;-41